sensor_id;sensor_type;location;lat;lon;timestamp;P1;durP1;ratioP1;P2;durP2;ratioP2
55776;SDS011;54079;44.540;18.784;2024-02-21T00:01:05;12.52;;;9.63;;
55776;SDS011;54079;44.540;18.784;2024-02-21T00:03:31;14.32;;;9.82;;
55776;SDS011;54079;44.540;18.784;2024-02-21T00:05:57;12.25;;;7.88;;
55776;SDS011;54079;44.540;18.784;2024-02-21T00:08:23;11.27;;;6.63;;
55776;SDS011;54079;44.540;18.784;2024-02-21T00:10:50;9.77;;;7.05;;
55776;SDS011;54079;44.540;18.784;2024-02-21T00:13:16;12.32;;;8.13;;
55776;SDS011;54079;44.540;18.784;2024-02-21T00:15:42;10.20;;;7.68;;
55776;SDS011;54079;44.540;18.784;2024-02-21T00:18:08;12.00;;;8.60;;
55776;SDS011;54079;44.540;18.784;2024-02-21T00:20:36;11.70;;;8.65;;
55776;SDS011;54079;44.540;18.784;2024-02-21T00:23:02;13.00;;;8.63;;
55776;SDS011;54079;44.540;18.784;2024-02-21T00:25:28;10.63;;;6.78;;
55776;SDS011;54079;44.540;18.784;2024-02-21T00:27:54;14.98;;;10.65;;
55776;SDS011;54079;44.540;18.784;2024-02-21T00:30:20;15.65;;;10.75;;
55776;SDS011;54079;44.540;18.784;2024-02-21T00:32:46;13.30;;;9.90;;
55776;SDS011;54079;44.540;18.784;2024-02-21T00:35:13;15.32;;;10.55;;
55776;SDS011;54079;44.540;18.784;2024-02-21T00:37:39;16.48;;;11.48;;
55776;SDS011;54079;44.540;18.784;2024-02-21T00:40:05;11.30;;;9.50;;
55776;SDS011;54079;44.540;18.784;2024-02-21T00:42:32;14.85;;;10.02;;
55776;SDS011;54079;44.540;18.784;2024-02-21T00:44:58;14.77;;;9.85;;
55776;SDS011;54079;44.540;18.784;2024-02-21T00:47:24;14.60;;;9.95;;
55776;SDS011;54079;44.540;18.784;2024-02-21T00:49:50;14.98;;;9.98;;
55776;SDS011;54079;44.540;18.784;2024-02-21T00:52:16;13.43;;;8.75;;
55776;SDS011;54079;44.540;18.784;2024-02-21T00:54:42;12.30;;;9.10;;
55776;SDS011;54079;44.540;18.784;2024-02-21T00:57:08;11.35;;;8.15;;
55776;SDS011;54079;44.540;18.784;2024-02-21T00:59:34;13.60;;;9.63;;
55776;SDS011;54079;44.540;18.784;2024-02-21T01:02:00;15.75;;;11.38;;
55776;SDS011;54079;44.540;18.784;2024-02-21T01:04:26;13.95;;;10.05;;
55776;SDS011;54079;44.540;18.784;2024-02-21T01:06:51;12.27;;;9.45;;
55776;SDS011;54079;44.540;18.784;2024-02-21T01:09:17;14.52;;;10.27;;
55776;SDS011;54079;44.540;18.784;2024-02-21T01:11:43;12.15;;;8.60;;
55776;SDS011;54079;44.540;18.784;2024-02-21T01:14:09;15.40;;;11.38;;
55776;SDS011;54079;44.540;18.784;2024-02-21T01:16:36;14.68;;;10.30;;
55776;SDS011;54079;44.540;18.784;2024-02-21T01:19:02;13.63;;;9.43;;
55776;SDS011;54079;44.540;18.784;2024-02-21T01:21:28;13.40;;;9.27;;
55776;SDS011;54079;44.540;18.784;2024-02-21T01:23:54;14.32;;;10.88;;
55776;SDS011;54079;44.540;18.784;2024-02-21T01:26:20;16.65;;;12.13;;
55776;SDS011;54079;44.540;18.784;2024-02-21T01:28:46;15.25;;;10.95;;
55776;SDS011;54079;44.540;18.784;2024-02-21T01:31:12;14.30;;;11.18;;
55776;SDS011;54079;44.540;18.784;2024-02-21T01:33:38;13.65;;;10.48;;
55776;SDS011;54079;44.540;18.784;2024-02-21T01:36:04;13.75;;;9.63;;
55776;SDS011;54079;44.540;18.784;2024-02-21T01:38:33;14.77;;;10.75;;
55776;SDS011;54079;44.540;18.784;2024-02-21T01:41:00;12.05;;;9.45;;
55776;SDS011;54079;44.540;18.784;2024-02-21T01:43:26;15.45;;;12.45;;
55776;SDS011;54079;44.540;18.784;2024-02-21T01:45:53;14.60;;;11.50;;
55776;SDS011;54079;44.540;18.784;2024-02-21T01:48:21;13.00;;;10.27;;
55776;SDS011;54079;44.540;18.784;2024-02-21T01:50:51;16.40;;;11.82;;
55776;SDS011;54079;44.540;18.784;2024-02-21T01:53:41;18.13;;;13.17;;
55776;SDS011;54079;44.540;18.784;2024-02-21T01:56:08;16.17;;;11.77;;
55776;SDS011;54079;44.540;18.784;2024-02-21T01:58:35;19.95;;;13.60;;
55776;SDS011;54079;44.540;18.784;2024-02-21T02:01:02;20.92;;;14.65;;
55776;SDS011;54079;44.540;18.784;2024-02-21T02:03:28;19.00;;;15.05;;
55776;SDS011;54079;44.540;18.784;2024-02-21T02:05:55;17.13;;;13.98;;
55776;SDS011;54079;44.540;18.784;2024-02-21T02:08:21;24.38;;;18.13;;
55776;SDS011;54079;44.540;18.784;2024-02-21T02:10:47;20.08;;;15.48;;
55776;SDS011;54079;44.540;18.784;2024-02-21T02:13:14;23.73;;;16.02;;
55776;SDS011;54079;44.540;18.784;2024-02-21T02:15:46;20.25;;;14.77;;
55776;SDS011;54079;44.540;18.784;2024-02-21T02:18:14;22.48;;;15.77;;
55776;SDS011;54079;44.540;18.784;2024-02-21T02:20:43;24.27;;;19.13;;
55776;SDS011;54079;44.540;18.784;2024-02-21T02:25:54;19.65;;;15.32;;
55776;SDS011;54079;44.540;18.784;2024-02-21T02:28:21;25.15;;;18.15;;
55776;SDS011;54079;44.540;18.784;2024-02-21T02:30:47;19.77;;;14.90;;
55776;SDS011;54079;44.540;18.784;2024-02-21T02:33:14;23.00;;;17.08;;
55776;SDS011;54079;44.540;18.784;2024-02-21T02:35:40;21.88;;;16.15;;
55776;SDS011;54079;44.540;18.784;2024-02-21T02:38:06;22.50;;;15.80;;
55776;SDS011;54079;44.540;18.784;2024-02-21T02:40:35;22.33;;;16.33;;
55776;SDS011;54079;44.540;18.784;2024-02-21T02:43:01;21.48;;;14.60;;
55776;SDS011;54079;44.540;18.784;2024-02-21T02:45:28;18.08;;;13.75;;
55776;SDS011;54079;44.540;18.784;2024-02-21T02:47:54;18.63;;;13.70;;
55776;SDS011;54079;44.540;18.784;2024-02-21T02:50:24;21.02;;;15.85;;
55776;SDS011;54079;44.540;18.784;2024-02-21T02:52:51;20.00;;;14.93;;
55776;SDS011;54079;44.540;18.784;2024-02-21T02:55:17;18.65;;;13.95;;
55776;SDS011;54079;44.540;18.784;2024-02-21T02:57:43;16.85;;;13.45;;
55776;SDS011;54079;44.540;18.784;2024-02-21T03:00:12;22.10;;;14.85;;
55776;SDS011;54079;44.540;18.784;2024-02-21T03:02:40;16.33;;;13.50;;
55776;SDS011;54079;44.540;18.784;2024-02-21T03:07:40;16.80;;;13.10;;
55776;SDS011;54079;44.540;18.784;2024-02-21T03:10:06;16.45;;;12.55;;
55776;SDS011;54079;44.540;18.784;2024-02-21T03:12:32;19.35;;;14.45;;
55776;SDS011;54079;44.540;18.784;2024-02-21T03:14:59;18.65;;;13.90;;
55776;SDS011;54079;44.540;18.784;2024-02-21T03:17:25;17.80;;;13.65;;
55776;SDS011;54079;44.540;18.784;2024-02-21T03:19:54;20.63;;;15.82;;
55776;SDS011;54079;44.540;18.784;2024-02-21T03:22:20;17.70;;;14.10;;
55776;SDS011;54079;44.540;18.784;2024-02-21T03:24:47;19.75;;;14.65;;
55776;SDS011;54079;44.540;18.784;2024-02-21T03:27:13;18.55;;;14.07;;
55776;SDS011;54079;44.540;18.784;2024-02-21T03:29:39;25.98;;;19.10;;
55776;SDS011;54079;44.540;18.784;2024-02-21T03:32:05;20.92;;;15.05;;
55776;SDS011;54079;44.540;18.784;2024-02-21T03:34:31;19.48;;;15.07;;
55776;SDS011;54079;44.540;18.784;2024-02-21T03:36:57;20.27;;;15.05;;
55776;SDS011;54079;44.540;18.784;2024-02-21T03:39:24;18.63;;;13.95;;
55776;SDS011;54079;44.540;18.784;2024-02-21T03:41:50;20.80;;;15.15;;
55776;SDS011;54079;44.540;18.784;2024-02-21T03:44:16;56.35;;;19.02;;
55776;SDS011;54079;44.540;18.784;2024-02-21T03:46:42;17.75;;;12.32;;
55776;SDS011;54079;44.540;18.784;2024-02-21T03:49:08;17.60;;;12.80;;
55776;SDS011;54079;44.540;18.784;2024-02-21T03:51:34;17.48;;;12.98;;
55776;SDS011;54079;44.540;18.784;2024-02-21T03:54:00;18.98;;;13.88;;
55776;SDS011;54079;44.540;18.784;2024-02-21T03:56:26;17.20;;;13.13;;
55776;SDS011;54079;44.540;18.784;2024-02-21T03:58:52;18.83;;;15.40;;
55776;SDS011;54079;44.540;18.784;2024-02-21T04:01:18;19.63;;;14.05;;
55776;SDS011;54079;44.540;18.784;2024-02-21T04:03:44;18.25;;;13.75;;
55776;SDS011;54079;44.540;18.784;2024-02-21T04:06:10;18.33;;;13.82;;
55776;SDS011;54079;44.540;18.784;2024-02-21T04:08:36;18.10;;;13.15;;
55776;SDS011;54079;44.540;18.784;2024-02-21T04:11:02;16.50;;;13.10;;
55776;SDS011;54079;44.540;18.784;2024-02-21T04:13:28;20.58;;;15.57;;
55776;SDS011;54079;44.540;18.784;2024-02-21T04:15:54;19.42;;;15.35;;
55776;SDS011;54079;44.540;18.784;2024-02-21T04:18:20;17.75;;;14.05;;
55776;SDS011;54079;44.540;18.784;2024-02-21T04:20:47;18.30;;;14.18;;
55776;SDS011;54079;44.540;18.784;2024-02-21T04:23:12;18.88;;;15.02;;
55776;SDS011;54079;44.540;18.784;2024-02-21T04:25:39;16.20;;;13.15;;
55776;SDS011;54079;44.540;18.784;2024-02-21T04:28:05;17.05;;;14.25;;
55776;SDS011;54079;44.540;18.784;2024-02-21T04:30:31;19.83;;;14.70;;
55776;SDS011;54079;44.540;18.784;2024-02-21T04:32:57;25.15;;;19.35;;
55776;SDS011;54079;44.540;18.784;2024-02-21T04:35:22;20.38;;;17.13;;
55776;SDS011;54079;44.540;18.784;2024-02-21T04:37:49;21.70;;;16.30;;
55776;SDS011;54079;44.540;18.784;2024-02-21T04:40:15;21.88;;;16.95;;
55776;SDS011;54079;44.540;18.784;2024-02-21T04:42:42;23.05;;;17.15;;
55776;SDS011;54079;44.540;18.784;2024-02-21T04:45:08;23.58;;;17.60;;
55776;SDS011;54079;44.540;18.784;2024-02-21T04:47:34;20.17;;;16.33;;
55776;SDS011;54079;44.540;18.784;2024-02-21T04:50:00;28.63;;;22.15;;
55776;SDS011;54079;44.540;18.784;2024-02-21T04:52:26;28.90;;;20.70;;
55776;SDS011;54079;44.540;18.784;2024-02-21T04:54:52;21.75;;;17.88;;
55776;SDS011;54079;44.540;18.784;2024-02-21T04:57:18;22.67;;;18.67;;
55776;SDS011;54079;44.540;18.784;2024-02-21T04:59:44;27.30;;;20.17;;
55776;SDS011;54079;44.540;18.784;2024-02-21T05:02:12;26.77;;;18.63;;
55776;SDS011;54079;44.540;18.784;2024-02-21T05:04:39;27.67;;;19.38;;
55776;SDS011;54079;44.540;18.784;2024-02-21T05:07:06;24.77;;;18.88;;
55776;SDS011;54079;44.540;18.784;2024-02-21T05:09:32;25.63;;;19.33;;
55776;SDS011;54079;44.540;18.784;2024-02-21T05:11:58;21.30;;;17.25;;
55776;SDS011;54079;44.540;18.784;2024-02-21T05:14:25;24.48;;;19.13;;
55776;SDS011;54079;44.540;18.784;2024-02-21T05:16:52;23.63;;;17.25;;
55776;SDS011;54079;44.540;18.784;2024-02-21T05:19:18;21.17;;;16.52;;
55776;SDS011;54079;44.540;18.784;2024-02-21T05:21:44;20.50;;;17.13;;
55776;SDS011;54079;44.540;18.784;2024-02-21T05:24:10;25.02;;;19.10;;
55776;SDS011;54079;44.540;18.784;2024-02-21T05:26:36;22.27;;;17.70;;
55776;SDS011;54079;44.540;18.784;2024-02-21T05:29:03;20.67;;;16.38;;
55776;SDS011;54079;44.540;18.784;2024-02-21T05:34:16;17.85;;;14.00;;
55776;SDS011;54079;44.540;18.784;2024-02-21T05:36:46;20.77;;;14.73;;
55776;SDS011;54079;44.540;18.784;2024-02-21T05:39:13;19.75;;;15.48;;
55776;SDS011;54079;44.540;18.784;2024-02-21T05:41:39;20.83;;;15.50;;
55776;SDS011;54079;44.540;18.784;2024-02-21T05:44:05;20.55;;;16.35;;
55776;SDS011;54079;44.540;18.784;2024-02-21T05:46:31;24.73;;;17.40;;
55776;SDS011;54079;44.540;18.784;2024-02-21T05:48:57;25.58;;;19.30;;
55776;SDS011;54079;44.540;18.784;2024-02-21T05:51:23;21.73;;;17.17;;
55776;SDS011;54079;44.540;18.784;2024-02-21T05:53:49;20.40;;;15.63;;
55776;SDS011;54079;44.540;18.784;2024-02-21T05:56:15;22.95;;;18.15;;
55776;SDS011;54079;44.540;18.784;2024-02-21T05:58:42;38.88;;;30.50;;
55776;SDS011;54079;44.540;18.784;2024-02-21T06:01:08;36.53;;;28.30;;
55776;SDS011;54079;44.540;18.784;2024-02-21T06:03:34;32.65;;;24.88;;
55776;SDS011;54079;44.540;18.784;2024-02-21T06:06:01;29.92;;;22.92;;
55776;SDS011;54079;44.540;18.784;2024-02-21T06:08:28;30.02;;;23.25;;
55776;SDS011;54079;44.540;18.784;2024-02-21T06:10:54;31.45;;;24.70;;
55776;SDS011;54079;44.540;18.784;2024-02-21T06:13:20;33.00;;;25.63;;
55776;SDS011;54079;44.540;18.784;2024-02-21T06:15:47;44.25;;;30.17;;
55776;SDS011;54079;44.540;18.784;2024-02-21T06:18:13;38.08;;;29.98;;
55776;SDS011;54079;44.540;18.784;2024-02-21T06:20:39;39.20;;;28.92;;
55776;SDS011;54079;44.540;18.784;2024-02-21T06:23:06;38.28;;;29.08;;
55776;SDS011;54079;44.540;18.784;2024-02-21T06:25:32;38.30;;;29.40;;
55776;SDS011;54079;44.540;18.784;2024-02-21T06:27:58;36.33;;;27.23;;
55776;SDS011;54079;44.540;18.784;2024-02-21T06:30:24;41.58;;;32.75;;
55776;SDS011;54079;44.540;18.784;2024-02-21T06:32:50;45.90;;;33.63;;
55776;SDS011;54079;44.540;18.784;2024-02-21T06:35:16;40.90;;;30.63;;
55776;SDS011;54079;44.540;18.784;2024-02-21T06:37:42;37.40;;;27.17;;
55776;SDS011;54079;44.540;18.784;2024-02-21T06:40:10;41.17;;;30.52;;
55776;SDS011;54079;44.540;18.784;2024-02-21T06:42:36;48.30;;;34.08;;
55776;SDS011;54079;44.540;18.784;2024-02-21T06:45:02;45.38;;;34.42;;
55776;SDS011;54079;44.540;18.784;2024-02-21T06:47:28;46.95;;;35.08;;
55776;SDS011;54079;44.540;18.784;2024-02-21T06:49:54;44.22;;;32.55;;
55776;SDS011;54079;44.540;18.784;2024-02-21T06:52:20;42.70;;;32.10;;
55776;SDS011;54079;44.540;18.784;2024-02-21T06:54:46;45.63;;;33.38;;
55776;SDS011;54079;44.540;18.784;2024-02-21T06:57:13;48.15;;;36.72;;
55776;SDS011;54079;44.540;18.784;2024-02-21T06:59:39;40.28;;;30.48;;
55776;SDS011;54079;44.540;18.784;2024-02-21T07:02:05;37.17;;;29.50;;
55776;SDS011;54079;44.540;18.784;2024-02-21T07:04:32;39.67;;;29.23;;
55776;SDS011;54079;44.540;18.784;2024-02-21T07:06:58;38.97;;;29.80;;
55776;SDS011;54079;44.540;18.784;2024-02-21T07:09:24;40.47;;;30.20;;
55776;SDS011;54079;44.540;18.784;2024-02-21T07:11:50;41.33;;;31.70;;
55776;SDS011;54079;44.540;18.784;2024-02-21T07:14:16;38.15;;;28.52;;
55776;SDS011;54079;44.540;18.784;2024-02-21T07:16:43;38.50;;;29.02;;
55776;SDS011;54079;44.540;18.784;2024-02-21T07:19:09;34.03;;;25.70;;
55776;SDS011;54079;44.540;18.784;2024-02-21T07:21:35;37.72;;;29.00;;
55776;SDS011;54079;44.540;18.784;2024-02-21T07:24:03;34.92;;;27.55;;
55776;SDS011;54079;44.540;18.784;2024-02-21T07:26:30;35.10;;;27.88;;
55776;SDS011;54079;44.540;18.784;2024-02-21T07:28:57;39.75;;;30.98;;
55776;SDS011;54079;44.540;18.784;2024-02-21T07:31:22;36.53;;;26.90;;
55776;SDS011;54079;44.540;18.784;2024-02-21T07:33:48;36.40;;;28.02;;
55776;SDS011;54079;44.540;18.784;2024-02-21T07:36:15;41.08;;;29.95;;
55776;SDS011;54079;44.540;18.784;2024-02-21T07:38:42;37.63;;;27.80;;
55776;SDS011;54079;44.540;18.784;2024-02-21T07:41:08;32.42;;;25.02;;
55776;SDS011;54079;44.540;18.784;2024-02-21T07:43:34;39.97;;;29.27;;
55776;SDS011;54079;44.540;18.784;2024-02-21T07:46:00;37.72;;;29.17;;
55776;SDS011;54079;44.540;18.784;2024-02-21T07:48:26;41.15;;;29.10;;
55776;SDS011;54079;44.540;18.784;2024-02-21T07:50:52;38.33;;;29.42;;
55776;SDS011;54079;44.540;18.784;2024-02-21T07:53:19;41.75;;;31.17;;
55776;SDS011;54079;44.540;18.784;2024-02-21T07:55:46;41.78;;;30.42;;
55776;SDS011;54079;44.540;18.784;2024-02-21T07:58:12;37.38;;;27.73;;
55776;SDS011;54079;44.540;18.784;2024-02-21T08:00:38;38.22;;;30.58;;
55776;SDS011;54079;44.540;18.784;2024-02-21T08:03:04;35.05;;;27.10;;
55776;SDS011;54079;44.540;18.784;2024-02-21T08:05:30;35.08;;;27.60;;
55776;SDS011;54079;44.540;18.784;2024-02-21T08:07:56;38.30;;;28.88;;
55776;SDS011;54079;44.540;18.784;2024-02-21T08:10:22;37.75;;;29.48;;
55776;SDS011;54079;44.540;18.784;2024-02-21T08:12:48;40.38;;;30.63;;
55776;SDS011;54079;44.540;18.784;2024-02-21T08:15:13;39.33;;;30.25;;
55776;SDS011;54079;44.540;18.784;2024-02-21T08:17:40;36.30;;;28.50;;
55776;SDS011;54079;44.540;18.784;2024-02-21T08:20:06;42.70;;;31.48;;
55776;SDS011;54079;44.540;18.784;2024-02-21T08:22:33;45.40;;;35.17;;
55776;SDS011;54079;44.540;18.784;2024-02-21T08:24:59;54.33;;;37.60;;
55776;SDS011;54079;44.540;18.784;2024-02-21T08:27:25;46.63;;;34.75;;
55776;SDS011;54079;44.540;18.784;2024-02-21T08:29:51;49.58;;;35.40;;
55776;SDS011;54079;44.540;18.784;2024-02-21T08:32:16;48.13;;;35.22;;
55776;SDS011;54079;44.540;18.784;2024-02-21T08:34:42;37.97;;;29.15;;
55776;SDS011;54079;44.540;18.784;2024-02-21T08:37:08;46.95;;;32.42;;
55776;SDS011;54079;44.540;18.784;2024-02-21T08:39:35;39.50;;;28.20;;
55776;SDS011;54079;44.540;18.784;2024-02-21T08:42:01;32.30;;;24.40;;
55776;SDS011;54079;44.540;18.784;2024-02-21T08:44:28;42.42;;;31.45;;
55776;SDS011;54079;44.540;18.784;2024-02-21T08:46:54;44.67;;;34.78;;
55776;SDS011;54079;44.540;18.784;2024-02-21T08:49:20;39.15;;;29.75;;
55776;SDS011;54079;44.540;18.784;2024-02-21T08:51:46;37.25;;;29.70;;
55776;SDS011;54079;44.540;18.784;2024-02-21T08:54:12;39.20;;;30.75;;
55776;SDS011;54079;44.540;18.784;2024-02-21T08:56:38;44.42;;;34.17;;
55776;SDS011;54079;44.540;18.784;2024-02-21T08:59:04;55.85;;;38.60;;
55776;SDS011;54079;44.540;18.784;2024-02-21T09:01:30;45.72;;;35.05;;
55776;SDS011;54079;44.540;18.784;2024-02-21T09:03:56;43.95;;;32.70;;
55776;SDS011;54079;44.540;18.784;2024-02-21T09:06:22;37.63;;;29.92;;
55776;SDS011;54079;44.540;18.784;2024-02-21T09:08:48;39.10;;;28.75;;
55776;SDS011;54079;44.540;18.784;2024-02-21T09:11:15;33.58;;;26.13;;
55776;SDS011;54079;44.540;18.784;2024-02-21T09:13:41;32.60;;;25.48;;
55776;SDS011;54079;44.540;18.784;2024-02-21T09:16:07;31.23;;;21.92;;
55776;SDS011;54079;44.540;18.784;2024-02-21T09:18:34;23.38;;;18.00;;
55776;SDS011;54079;44.540;18.784;2024-02-21T09:21:00;21.13;;;16.27;;
55776;SDS011;54079;44.540;18.784;2024-02-21T09:23:26;24.45;;;16.77;;
55776;SDS011;54079;44.540;18.784;2024-02-21T09:25:52;27.88;;;21.00;;
55776;SDS011;54079;44.540;18.784;2024-02-21T09:28:18;23.30;;;15.07;;
55776;SDS011;54079;44.540;18.784;2024-02-21T09:30:44;21.98;;;16.92;;
55776;SDS011;54079;44.540;18.784;2024-02-21T09:33:11;23.70;;;17.77;;
55776;SDS011;54079;44.540;18.784;2024-02-21T09:35:38;35.03;;;24.83;;
55776;SDS011;54079;44.540;18.784;2024-02-21T09:38:04;31.73;;;22.85;;
55776;SDS011;54079;44.540;18.784;2024-02-21T09:40:30;35.35;;;26.33;;
55776;SDS011;54079;44.540;18.784;2024-02-21T09:43:02;29.00;;;19.23;;
55776;SDS011;54079;44.540;18.784;2024-02-21T09:45:32;23.08;;;17.95;;
55776;SDS011;54079;44.540;18.784;2024-02-21T09:48:14;21.98;;;16.75;;
55776;SDS011;54079;44.540;18.784;2024-02-21T09:50:48;24.77;;;19.15;;
55776;SDS011;54079;44.540;18.784;2024-02-21T09:53:15;26.48;;;18.60;;
55776;SDS011;54079;44.540;18.784;2024-02-21T09:55:42;24.00;;;17.85;;
55776;SDS011;54079;44.540;18.784;2024-02-21T09:58:09;26.35;;;18.55;;
55776;SDS011;54079;44.540;18.784;2024-02-21T10:00:36;21.35;;;16.20;;
55776;SDS011;54079;44.540;18.784;2024-02-21T10:03:03;23.30;;;17.20;;
55776;SDS011;54079;44.540;18.784;2024-02-21T10:05:36;31.40;;;23.02;;
55776;SDS011;54079;44.540;18.784;2024-02-21T10:08:03;32.63;;;23.98;;
55776;SDS011;54079;44.540;18.784;2024-02-21T10:10:40;32.30;;;24.15;;
55776;SDS011;54079;44.540;18.784;2024-02-21T10:13:10;20.88;;;17.08;;
55776;SDS011;54079;44.540;18.784;2024-02-21T10:15:36;24.63;;;18.20;;
55776;SDS011;54079;44.540;18.784;2024-02-21T10:18:03;29.20;;;22.65;;
55776;SDS011;54079;44.540;18.784;2024-02-21T10:20:29;36.05;;;27.27;;
55776;SDS011;54079;44.540;18.784;2024-02-21T10:23:04;23.38;;;17.73;;
55776;SDS011;54079;44.540;18.784;2024-02-21T10:25:37;23.15;;;18.20;;
55776;SDS011;54079;44.540;18.784;2024-02-21T10:28:06;27.08;;;20.30;;
55776;SDS011;54079;44.540;18.784;2024-02-21T10:30:33;24.92;;;19.15;;
55776;SDS011;54079;44.540;18.784;2024-02-21T10:32:59;28.55;;;23.52;;
55776;SDS011;54079;44.540;18.784;2024-02-21T10:35:25;27.30;;;22.33;;
55776;SDS011;54079;44.540;18.784;2024-02-21T10:37:53;24.83;;;22.15;;
55776;SDS011;54079;44.540;18.784;2024-02-21T10:40:27;23.30;;;18.70;;
55776;SDS011;54079;44.540;18.784;2024-02-21T10:42:59;30.00;;;22.80;;
55776;SDS011;54079;44.540;18.784;2024-02-21T10:45:30;24.52;;;19.35;;
55776;SDS011;54079;44.540;18.784;2024-02-21T10:48:20;27.13;;;21.92;;
55776;SDS011;54079;44.540;18.784;2024-02-21T10:50:57;18.40;;;16.40;;
55776;SDS011;54079;44.540;18.784;2024-02-21T10:53:36;24.13;;;19.35;;
55776;SDS011;54079;44.540;18.784;2024-02-21T10:58:57;38.40;;;28.77;;
55776;SDS011;54079;44.540;18.784;2024-02-21T11:01:25;26.98;;;23.00;;
55776;SDS011;54079;44.540;18.784;2024-02-21T11:03:54;29.75;;;22.85;;
55776;SDS011;54079;44.540;18.784;2024-02-21T11:06:21;26.13;;;21.70;;
55776;SDS011;54079;44.540;18.784;2024-02-21T11:08:59;19.52;;;17.20;;
55776;SDS011;54079;44.540;18.784;2024-02-21T11:11:29;22.17;;;18.15;;
55776;SDS011;54079;44.540;18.784;2024-02-21T11:16:43;39.15;;;30.88;;
55776;SDS011;54079;44.540;18.784;2024-02-21T11:19:30;29.17;;;24.73;;
55776;SDS011;54079;44.540;18.784;2024-02-21T11:21:56;24.23;;;18.65;;
55776;SDS011;54079;44.540;18.784;2024-02-21T11:24:30;31.48;;;25.33;;
55776;SDS011;54079;44.540;18.784;2024-02-21T11:27:09;27.00;;;22.17;;
55776;SDS011;54079;44.540;18.784;2024-02-21T11:29:54;38.22;;;31.30;;
55776;SDS011;54079;44.540;18.784;2024-02-21T11:32:24;26.42;;;21.17;;
55776;SDS011;54079;44.540;18.784;2024-02-21T11:34:58;29.20;;;21.90;;
55776;SDS011;54079;44.540;18.784;2024-02-21T11:37:31;28.30;;;21.83;;
55776;SDS011;54079;44.540;18.784;2024-02-21T11:39:58;37.17;;;28.83;;
55776;SDS011;54079;44.540;18.784;2024-02-21T11:42:25;32.03;;;24.10;;
55776;SDS011;54079;44.540;18.784;2024-02-21T11:44:52;28.67;;;22.50;;
55776;SDS011;54079;44.540;18.784;2024-02-21T11:47:22;37.55;;;30.70;;
55776;SDS011;54079;44.540;18.784;2024-02-21T11:49:48;35.75;;;29.52;;
55776;SDS011;54079;44.540;18.784;2024-02-21T11:52:19;27.92;;;23.05;;
55776;SDS011;54079;44.540;18.784;2024-02-21T11:54:52;26.90;;;21.90;;
55776;SDS011;54079;44.540;18.784;2024-02-21T11:57:19;27.50;;;21.17;;
55776;SDS011;54079;44.540;18.784;2024-02-21T11:59:46;21.35;;;16.70;;
55776;SDS011;54079;44.540;18.784;2024-02-21T12:02:12;20.42;;;15.73;;
55776;SDS011;54079;44.540;18.784;2024-02-21T12:04:39;18.15;;;14.70;;
55776;SDS011;54079;44.540;18.784;2024-02-21T12:07:05;20.23;;;17.10;;
55776;SDS011;54079;44.540;18.784;2024-02-21T12:09:33;16.13;;;14.25;;
55776;SDS011;54079;44.540;18.784;2024-02-21T12:12:01;14.10;;;11.27;;
55776;SDS011;54079;44.540;18.784;2024-02-21T12:14:30;14.45;;;12.10;;
55776;SDS011;54079;44.540;18.784;2024-02-21T12:16:57;11.95;;;8.73;;
55776;SDS011;54079;44.540;18.784;2024-02-21T12:19:24;10.57;;;7.85;;
55776;SDS011;54079;44.540;18.784;2024-02-21T12:21:50;13.57;;;11.32;;
55776;SDS011;54079;44.540;18.784;2024-02-21T12:24:20;14.20;;;11.70;;
55776;SDS011;54079;44.540;18.784;2024-02-21T12:26:51;13.35;;;11.10;;
55776;SDS011;54079;44.540;18.784;2024-02-21T12:29:20;13.88;;;10.93;;
55776;SDS011;54079;44.540;18.784;2024-02-21T12:31:46;12.32;;;10.60;;
55776;SDS011;54079;44.540;18.784;2024-02-21T12:34:12;13.20;;;10.20;;
55776;SDS011;54079;44.540;18.784;2024-02-21T12:36:45;15.70;;;11.93;;
55776;SDS011;54079;44.540;18.784;2024-02-21T12:39:12;12.85;;;11.13;;
55776;SDS011;54079;44.540;18.784;2024-02-21T12:41:38;18.83;;;15.73;;
55776;SDS011;54079;44.540;18.784;2024-02-21T12:44:06;12.80;;;9.88;;
55776;SDS011;54079;44.540;18.784;2024-02-21T12:46:33;9.80;;;8.48;;
55776;SDS011;54079;44.540;18.784;2024-02-21T12:49:00;18.42;;;12.32;;
55776;SDS011;54079;44.540;18.784;2024-02-21T12:51:26;13.60;;;11.43;;
55776;SDS011;54079;44.540;18.784;2024-02-21T12:53:52;13.15;;;6.55;;
55776;SDS011;54079;44.540;18.784;2024-02-21T12:56:18;11.30;;;8.18;;
55776;SDS011;54079;44.540;18.784;2024-02-21T12:58:44;15.27;;;10.18;;
55776;SDS011;54079;44.540;18.784;2024-02-21T13:01:10;12.05;;;8.73;;
55776;SDS011;54079;44.540;18.784;2024-02-21T13:03:36;11.15;;;8.25;;
55776;SDS011;54079;44.540;18.784;2024-02-21T13:06:03;13.35;;;9.98;;
55776;SDS011;54079;44.540;18.784;2024-02-21T13:08:29;14.70;;;10.80;;
55776;SDS011;54079;44.540;18.784;2024-02-21T13:10:55;14.30;;;11.07;;
55776;SDS011;54079;44.540;18.784;2024-02-21T13:13:22;14.70;;;10.80;;
55776;SDS011;54079;44.540;18.784;2024-02-21T13:15:48;16.20;;;12.00;;
55776;SDS011;54079;44.540;18.784;2024-02-21T13:18:14;20.65;;;13.07;;
55776;SDS011;54079;44.540;18.784;2024-02-21T13:20:40;15.75;;;10.75;;
55776;SDS011;54079;44.540;18.784;2024-02-21T13:23:06;14.88;;;11.98;;
55776;SDS011;54079;44.540;18.784;2024-02-21T13:25:32;13.90;;;9.05;;
55776;SDS011;54079;44.540;18.784;2024-02-21T13:27:58;9.88;;;7.82;;
55776;SDS011;54079;44.540;18.784;2024-02-21T13:30:24;15.85;;;13.75;;
55776;SDS011;54079;44.540;18.784;2024-02-21T13:32:51;12.60;;;9.55;;
55776;SDS011;54079;44.540;18.784;2024-02-21T13:35:17;13.10;;;10.30;;
55776;SDS011;54079;44.540;18.784;2024-02-21T13:37:43;14.82;;;11.25;;
55776;SDS011;54079;44.540;18.784;2024-02-21T13:40:09;10.95;;;7.97;;
55776;SDS011;54079;44.540;18.784;2024-02-21T13:42:36;10.50;;;7.63;;
55776;SDS011;54079;44.540;18.784;2024-02-21T13:45:03;11.60;;;9.00;;
55776;SDS011;54079;44.540;18.784;2024-02-21T13:47:30;7.35;;;6.05;;
55776;SDS011;54079;44.540;18.784;2024-02-21T13:49:57;12.30;;;8.60;;
55776;SDS011;54079;44.540;18.784;2024-02-21T13:52:23;9.57;;;5.63;;
55776;SDS011;54079;44.540;18.784;2024-02-21T13:54:51;11.73;;;7.78;;
55776;SDS011;54079;44.540;18.784;2024-02-21T13:57:17;12.13;;;9.55;;
55776;SDS011;54079;44.540;18.784;2024-02-21T13:59:43;12.27;;;9.30;;
55776;SDS011;54079;44.540;18.784;2024-02-21T14:02:10;22.58;;;16.10;;
55776;SDS011;54079;44.540;18.784;2024-02-21T14:04:36;17.52;;;13.82;;
55776;SDS011;54079;44.540;18.784;2024-02-21T14:07:02;15.15;;;11.35;;
55776;SDS011;54079;44.540;18.784;2024-02-21T14:09:28;11.52;;;8.48;;
55776;SDS011;54079;44.540;18.784;2024-02-21T14:14:26;10.02;;;7.15;;
55776;SDS011;54079;44.540;18.784;2024-02-21T14:16:51;9.82;;;6.80;;
55776;SDS011;54079;44.540;18.784;2024-02-21T14:19:17;11.68;;;9.43;;
55776;SDS011;54079;44.540;18.784;2024-02-21T14:21:44;13.77;;;10.43;;
55776;SDS011;54079;44.540;18.784;2024-02-21T14:24:10;16.08;;;12.85;;
55776;SDS011;54079;44.540;18.784;2024-02-21T14:26:37;18.33;;;13.38;;